sensor_id;sensor_type;location;lat;lon;timestamp;P1;durP1;ratioP1;P2;durP2;ratioP2
27684;SDS011;46113;50.130;8.526;2023-04-23T00:01:13;3.67;;;1.35;;
27684;SDS011;46113;50.130;8.526;2023-04-23T00:03:43;1.70;;;1.60;;
27684;SDS011;46113;50.130;8.526;2023-04-23T00:06:11;1.42;;;1.23;;
27684;SDS011;46113;50.130;8.526;2023-04-23T00:08:38;1.45;;;1.35;;
27684;SDS011;46113;50.130;8.526;2023-04-23T00:11:06;1.40;;;1.30;;
27684;SDS011;46113;50.130;8.526;2023-04-23T00:13:34;2.67;;;1.70;;
27684;SDS011;46113;50.130;8.526;2023-04-23T00:16:02;3.28;;;1.75;;
27684;SDS011;46113;50.130;8.526;2023-04-23T00:18:29;2.55;;;1.08;;
27684;SDS011;46113;50.130;8.526;2023-04-23T00:20:56;4.22;;;1.75;;
27684;SDS011;46113;50.130;8.526;2023-04-23T00:23:23;2.08;;;1.27;;
27684;SDS011;46113;50.130;8.526;2023-04-23T00:25:50;3.35;;;1.48;;
27684;SDS011;46113;50.130;8.526;2023-04-23T00:28:17;3.95;;;1.38;;
27684;SDS011;46113;50.130;8.526;2023-04-23T00:30:47;3.30;;;1.55;;
27684;SDS011;46113;50.130;8.526;2023-04-23T00:33:14;3.15;;;1.67;;
27684;SDS011;46113;50.130;8.526;2023-04-23T00:35:41;5.10;;;1.85;;
27684;SDS011;46113;50.130;8.526;2023-04-23T00:38:08;4.63;;;1.50;;
27684;SDS011;46113;50.130;8.526;2023-04-23T00:40:34;3.05;;;1.35;;
27684;SDS011;46113;50.130;8.526;2023-04-23T00:43:04;1.20;;;1.10;;
27684;SDS011;46113;50.130;8.526;2023-04-23T00:45:32;3.28;;;1.83;;
27684;SDS011;46113;50.130;8.526;2023-04-23T00:47:59;1.55;;;1.45;;
27684;SDS011;46113;50.130;8.526;2023-04-23T00:50:28;2.03;;;1.83;;
27684;SDS011;46113;50.130;8.526;2023-04-23T00:52:55;3.47;;;1.70;;
27684;SDS011;46113;50.130;8.526;2023-04-23T00:55:22;3.88;;;1.55;;
27684;SDS011;46113;50.130;8.526;2023-04-23T00:57:49;3.33;;;1.60;;
27684;SDS011;46113;50.130;8.526;2023-04-23T01:00:16;5.68;;;1.95;;
27684;SDS011;46113;50.130;8.526;2023-04-23T01:02:44;3.53;;;1.55;;
27684;SDS011;46113;50.130;8.526;2023-04-23T01:05:12;1.60;;;1.50;;
27684;SDS011;46113;50.130;8.526;2023-04-23T01:07:41;4.25;;;1.90;;
27684;SDS011;46113;50.130;8.526;2023-04-23T01:10:10;2.10;;;1.90;;
27684;SDS011;46113;50.130;8.526;2023-04-23T01:12:38;1.63;;;1.50;;
27684;SDS011;46113;50.130;8.526;2023-04-23T01:15:05;1.90;;;1.60;;
27684;SDS011;46113;50.130;8.526;2023-04-23T01:17:33;3.20;;;2.08;;
27684;SDS011;46113;50.130;8.526;2023-04-23T01:20:00;3.97;;;2.42;;
27684;SDS011;46113;50.130;8.526;2023-04-23T01:22:27;4.38;;;2.22;;
27684;SDS011;46113;50.130;8.526;2023-04-23T01:24:53;4.65;;;2.53;;
27684;SDS011;46113;50.130;8.526;2023-04-23T01:27:21;2.85;;;2.13;;
27684;SDS011;46113;50.130;8.526;2023-04-23T01:29:50;2.38;;;1.98;;
27684;SDS011;46113;50.130;8.526;2023-04-23T01:32:17;3.80;;;2.20;;
27684;SDS011;46113;50.130;8.526;2023-04-23T01:34:45;1.90;;;1.70;;
27684;SDS011;46113;50.130;8.526;2023-04-23T01:37:14;2.10;;;1.90;;
27684;SDS011;46113;50.130;8.526;2023-04-23T01:39:42;2.35;;;2.15;;
27684;SDS011;46113;50.130;8.526;2023-04-23T01:42:09;3.00;;;1.95;;
27684;SDS011;46113;50.130;8.526;2023-04-23T01:44:37;2.67;;;2.10;;
27684;SDS011;46113;50.130;8.526;2023-04-23T01:47:04;2.03;;;1.60;;
27684;SDS011;46113;50.130;8.526;2023-04-23T01:49:32;3.03;;;2.42;;
27684;SDS011;46113;50.130;8.526;2023-04-23T01:52:02;3.33;;;2.15;;
27684;SDS011;46113;50.130;8.526;2023-04-23T01:54:29;2.70;;;2.50;;
27684;SDS011;46113;50.130;8.526;2023-04-23T01:56:56;6.30;;;2.33;;
27684;SDS011;46113;50.130;8.526;2023-04-23T01:59:24;2.20;;;2.00;;
27684;SDS011;46113;50.130;8.526;2023-04-23T02:01:51;3.22;;;2.50;;
27684;SDS011;46113;50.130;8.526;2023-04-23T02:04:19;2.95;;;2.28;;
27684;SDS011;46113;50.130;8.526;2023-04-23T02:06:50;5.18;;;2.72;;
27684;SDS011;46113;50.130;8.526;2023-04-23T02:09:17;2.78;;;2.25;;
27684;SDS011;46113;50.130;8.526;2023-04-23T02:11:45;2.78;;;2.40;;
27684;SDS011;46113;50.130;8.526;2023-04-23T02:14:12;4.00;;;2.67;;
27684;SDS011;46113;50.130;8.526;2023-04-23T02:16:39;6.05;;;2.80;;
27684;SDS011;46113;50.130;8.526;2023-04-23T02:19:05;3.67;;;2.88;;
27684;SDS011;46113;50.130;8.526;2023-04-23T02:21:33;3.97;;;2.53;;
27684;SDS011;46113;50.130;8.526;2023-04-23T02:24:00;3.97;;;3.20;;
27684;SDS011;46113;50.130;8.526;2023-04-23T02:26:27;2.67;;;2.45;;
27684;SDS011;46113;50.130;8.526;2023-04-23T02:28:54;4.25;;;3.45;;
27684;SDS011;46113;50.130;8.526;2023-04-23T02:31:21;3.92;;;3.45;;
27684;SDS011;46113;50.130;8.526;2023-04-23T02:33:48;3.22;;;2.67;;
27684;SDS011;46113;50.130;8.526;2023-04-23T02:36:15;5.07;;;2.90;;
27684;SDS011;46113;50.130;8.526;2023-04-23T02:38:42;3.72;;;2.95;;
27684;SDS011;46113;50.130;8.526;2023-04-23T02:41:10;4.82;;;2.90;;
27684;SDS011;46113;50.130;8.526;2023-04-23T02:43:37;3.20;;;2.85;;
27684;SDS011;46113;50.130;8.526;2023-04-23T02:46:04;3.17;;;2.83;;
27684;SDS011;46113;50.130;8.526;2023-04-23T02:48:39;3.13;;;2.83;;
27684;SDS011;46113;50.130;8.526;2023-04-23T02:51:07;4.55;;;3.65;;
27684;SDS011;46113;50.130;8.526;2023-04-23T02:53:36;6.13;;;3.08;;
27684;SDS011;46113;50.130;8.526;2023-04-23T02:56:03;5.55;;;4.03;;
27684;SDS011;46113;50.130;8.526;2023-04-23T02:58:30;3.10;;;2.40;;
27684;SDS011;46113;50.130;8.526;2023-04-23T03:00:59;6.55;;;3.80;;
27684;SDS011;46113;50.130;8.526;2023-04-23T03:03:26;3.75;;;3.25;;
27684;SDS011;46113;50.130;8.526;2023-04-23T03:05:59;3.60;;;3.28;;
27684;SDS011;46113;50.130;8.526;2023-04-23T03:08:27;4.68;;;3.35;;
27684;SDS011;46113;50.130;8.526;2023-04-23T03:10:54;3.67;;;2.58;;
27684;SDS011;46113;50.130;8.526;2023-04-23T03:13:21;3.03;;;2.78;;
27684;SDS011;46113;50.130;8.526;2023-04-23T03:15:48;3.63;;;2.63;;
27684;SDS011;46113;50.130;8.526;2023-04-23T03:18:16;5.40;;;3.60;;
27684;SDS011;46113;50.130;8.526;2023-04-23T03:20:46;3.70;;;3.40;;
27684;SDS011;46113;50.130;8.526;2023-04-23T03:23:13;4.65;;;2.80;;
27684;SDS011;46113;50.130;8.526;2023-04-23T03:25:40;7.30;;;2.97;;
27684;SDS011;46113;50.130;8.526;2023-04-23T03:28:07;2.83;;;2.53;;
27684;SDS011;46113;50.130;8.526;2023-04-23T03:30:34;3.42;;;2.53;;
27684;SDS011;46113;50.130;8.526;2023-04-23T03:33:01;4.43;;;2.78;;
27684;SDS011;46113;50.130;8.526;2023-04-23T03:35:29;4.28;;;3.35;;
27684;SDS011;46113;50.130;8.526;2023-04-23T03:37:59;3.40;;;2.63;;
27684;SDS011;46113;50.130;8.526;2023-04-23T03:40:26;3.33;;;2.83;;
27684;SDS011;46113;50.130;8.526;2023-04-23T03:42:57;4.35;;;2.90;;
27684;SDS011;46113;50.130;8.526;2023-04-23T03:45:44;2.88;;;2.25;;
27684;SDS011;46113;50.130;8.526;2023-04-23T03:48:11;3.08;;;2.33;;
27684;SDS011;46113;50.130;8.526;2023-04-23T03:50:41;2.53;;;1.83;;
27684;SDS011;46113;50.130;8.526;2023-04-23T03:53:21;2.38;;;2.15;;
27684;SDS011;46113;50.130;8.526;2023-04-23T03:56:07;2.63;;;2.42;;
27684;SDS011;46113;50.130;8.526;2023-04-23T03:58:43;4.60;;;2.60;;
27684;SDS011;46113;50.130;8.526;2023-04-23T04:01:10;3.50;;;3.05;;
27684;SDS011;46113;50.130;8.526;2023-04-23T04:03:37;3.38;;;2.00;;
27684;SDS011;46113;50.130;8.526;2023-04-23T04:06:04;2.95;;;2.58;;
27684;SDS011;46113;50.130;8.526;2023-04-23T04:08:30;3.95;;;2.88;;
27684;SDS011;46113;50.130;8.526;2023-04-23T04:10:58;3.25;;;2.60;;
27684;SDS011;46113;50.130;8.526;2023-04-23T04:13:25;3.28;;;2.50;;
27684;SDS011;46113;50.130;8.526;2023-04-23T04:15:52;3.58;;;2.88;;
27684;SDS011;46113;50.130;8.526;2023-04-23T04:18:19;4.40;;;2.58;;
27684;SDS011;46113;50.130;8.526;2023-04-23T04:20:46;4.43;;;2.60;;
27684;SDS011;46113;50.130;8.526;2023-04-23T04:23:13;3.45;;;3.15;;
27684;SDS011;46113;50.130;8.526;2023-04-23T04:25:41;4.65;;;3.50;;
27684;SDS011;46113;50.130;8.526;2023-04-23T04:28:08;4.03;;;2.63;;
27684;SDS011;46113;50.130;8.526;2023-04-23T04:30:37;3.50;;;2.50;;
27684;SDS011;46113;50.130;8.526;2023-04-23T04:33:04;5.07;;;2.67;;
27684;SDS011;46113;50.130;8.526;2023-04-23T04:35:31;3.28;;;2.97;;
27684;SDS011;46113;50.130;8.526;2023-04-23T04:37:58;3.83;;;3.00;;
27684;SDS011;46113;50.130;8.526;2023-04-23T04:40:25;3.53;;;3.13;;
27684;SDS011;46113;50.130;8.526;2023-04-23T04:42:53;5.13;;;3.33;;
27684;SDS011;46113;50.130;8.526;2023-04-23T04:45:20;3.40;;;3.10;;
27684;SDS011;46113;50.130;8.526;2023-04-23T04:47:47;4.68;;;3.20;;
27684;SDS011;46113;50.130;8.526;2023-04-23T04:50:14;5.28;;;2.97;;
27684;SDS011;46113;50.130;8.526;2023-04-23T04:52:40;5.25;;;3.40;;
27684;SDS011;46113;50.130;8.526;2023-04-23T04:55:08;2.90;;;2.70;;
27684;SDS011;46113;50.130;8.526;2023-04-23T04:57:35;3.80;;;3.08;;
27684;SDS011;46113;50.130;8.526;2023-04-23T05:00:11;3.55;;;3.10;;
27684;SDS011;46113;50.130;8.526;2023-04-23T05:02:51;3.50;;;3.20;;
27684;SDS011;46113;50.130;8.526;2023-04-23T05:05:18;5.97;;;4.03;;
27684;SDS011;46113;50.130;8.526;2023-04-23T05:07:47;6.03;;;3.10;;
27684;SDS011;46113;50.130;8.526;2023-04-23T05:10:14;3.78;;;3.38;;
27684;SDS011;46113;50.130;8.526;2023-04-23T05:12:41;7.82;;;3.03;;
27684;SDS011;46113;50.130;8.526;2023-04-23T05:15:09;4.70;;;3.50;;
27684;SDS011;46113;50.130;8.526;2023-04-23T05:17:39;3.22;;;2.58;;
27684;SDS011;46113;50.130;8.526;2023-04-23T05:20:07;3.28;;;2.95;;
27684;SDS011;46113;50.130;8.526;2023-04-23T05:22:36;3.95;;;3.38;;
27684;SDS011;46113;50.130;8.526;2023-04-23T05:25:04;4.05;;;3.65;;
27684;SDS011;46113;50.130;8.526;2023-04-23T05:27:32;4.78;;;3.97;;
27684;SDS011;46113;50.130;8.526;2023-04-23T05:30:04;3.22;;;2.92;;
27684;SDS011;46113;50.130;8.526;2023-04-23T05:32:33;5.10;;;3.25;;
27684;SDS011;46113;50.130;8.526;2023-04-23T05:35:01;4.53;;;3.35;;
27684;SDS011;46113;50.130;8.526;2023-04-23T05:37:29;4.47;;;3.72;;
27684;SDS011;46113;50.130;8.526;2023-04-23T05:39:56;4.82;;;3.25;;
27684;SDS011;46113;50.130;8.526;2023-04-23T05:42:23;3.83;;;3.35;;
27684;SDS011;46113;50.130;8.526;2023-04-23T05:44:50;3.53;;;2.90;;
27684;SDS011;46113;50.130;8.526;2023-04-23T05:47:17;4.68;;;3.15;;
27684;SDS011;46113;50.130;8.526;2023-04-23T05:49:44;4.07;;;3.15;;
27684;SDS011;46113;50.130;8.526;2023-04-23T05:52:11;5.65;;;2.90;;
27684;SDS011;46113;50.130;8.526;2023-04-23T05:54:37;2.92;;;2.47;;
27684;SDS011;46113;50.130;8.526;2023-04-23T05:57:04;3.25;;;2.30;;
27684;SDS011;46113;50.130;8.526;2023-04-23T05:59:32;2.88;;;2.33;;
27684;SDS011;46113;50.130;8.526;2023-04-23T06:01:59;2.47;;;2.28;;
27684;SDS011;46113;50.130;8.526;2023-04-23T06:04:26;2.20;;;2.00;;
27684;SDS011;46113;50.130;8.526;2023-04-23T06:06:53;2.58;;;2.30;;
27684;SDS011;46113;50.130;8.526;2023-04-23T06:09:20;3.83;;;2.33;;
27684;SDS011;46113;50.130;8.526;2023-04-23T06:11:46;2.78;;;2.25;;
27684;SDS011;46113;50.130;8.526;2023-04-23T06:14:15;3.83;;;2.45;;
27684;SDS011;46113;50.130;8.526;2023-04-23T06:16:42;5.97;;;2.85;;
27684;SDS011;46113;50.130;8.526;2023-04-23T06:19:09;2.75;;;2.50;;
27684;SDS011;46113;50.130;8.526;2023-04-23T06:21:37;2.42;;;2.13;;
27684;SDS011;46113;50.130;8.526;2023-04-23T06:24:04;3.25;;;2.95;;
27684;SDS011;46113;50.130;8.526;2023-04-23T06:26:32;2.38;;;2.20;;
27684;SDS011;46113;50.130;8.526;2023-04-23T06:29:08;3.45;;;2.10;;
27684;SDS011;46113;50.130;8.526;2023-04-23T06:31:41;1.90;;;1.77;;
27684;SDS011;46113;50.130;8.526;2023-04-23T06:34:08;2.33;;;2.13;;
27684;SDS011;46113;50.130;8.526;2023-04-23T06:36:35;4.45;;;2.35;;
27684;SDS011;46113;50.130;8.526;2023-04-23T06:39:01;2.10;;;1.88;;
27684;SDS011;46113;50.130;8.526;2023-04-23T06:41:28;1.92;;;1.60;;
27684;SDS011;46113;50.130;8.526;2023-04-23T06:44:06;1.85;;;1.75;;
27684;SDS011;46113;50.130;8.526;2023-04-23T06:46:37;2.28;;;2.00;;
27684;SDS011;46113;50.130;8.526;2023-04-23T06:49:04;1.75;;;1.65;;
27684;SDS011;46113;50.130;8.526;2023-04-23T06:51:31;3.08;;;1.75;;
27684;SDS011;46113;50.130;8.526;2023-04-23T06:53:58;2.58;;;2.03;;
27684;SDS011;46113;50.130;8.526;2023-04-23T06:56:24;6.03;;;1.77;;
27684;SDS011;46113;50.130;8.526;2023-04-23T06:58:52;5.47;;;2.45;;
27684;SDS011;46113;50.130;8.526;2023-04-23T07:01:20;2.22;;;2.05;;
27684;SDS011;46113;50.130;8.526;2023-04-23T07:03:47;1.95;;;1.70;;
27684;SDS011;46113;50.130;8.526;2023-04-23T07:06:17;1.38;;;1.27;;
27684;SDS011;46113;50.130;8.526;2023-04-23T07:08:43;1.90;;;1.80;;
27684;SDS011;46113;50.130;8.526;2023-04-23T07:11:10;6.32;;;2.15;;
27684;SDS011;46113;50.130;8.526;2023-04-23T07:16:25;1.77;;;1.67;;
27684;SDS011;46113;50.130;8.526;2023-04-23T07:18:55;1.98;;;1.80;;
27684;SDS011;46113;50.130;8.526;2023-04-23T07:21:22;2.42;;;1.75;;
27684;SDS011;46113;50.130;8.526;2023-04-23T07:23:49;1.98;;;1.65;;
27684;SDS011;46113;50.130;8.526;2023-04-23T07:26:16;3.80;;;1.30;;
27684;SDS011;46113;50.130;8.526;2023-04-23T07:28:43;1.60;;;1.50;;
27684;SDS011;46113;50.130;8.526;2023-04-23T07:31:11;1.73;;;1.60;;
27684;SDS011;46113;50.130;8.526;2023-04-23T07:33:39;2.38;;;1.38;;
27684;SDS011;46113;50.130;8.526;2023-04-23T07:36:06;2.15;;;1.60;;
27684;SDS011;46113;50.130;8.526;2023-04-23T07:38:33;2.20;;;1.60;;
27684;SDS011;46113;50.130;8.526;2023-04-23T07:41:00;2.78;;;1.52;;
27684;SDS011;46113;50.130;8.526;2023-04-23T07:43:27;2.33;;;2.08;;
27684;SDS011;46113;50.130;8.526;2023-04-23T07:45:54;5.03;;;1.48;;
27684;SDS011;46113;50.130;8.526;2023-04-23T07:48:20;1.95;;;1.55;;
27684;SDS011;46113;50.130;8.526;2023-04-23T07:50:47;2.75;;;1.52;;
27684;SDS011;46113;50.130;8.526;2023-04-23T07:53:16;3.95;;;2.13;;
27684;SDS011;46113;50.130;8.526;2023-04-23T07:55:44;2.88;;;2.60;;
27684;SDS011;46113;50.130;8.526;2023-04-23T07:58:11;3.60;;;1.92;;
27684;SDS011;46113;50.130;8.526;2023-04-23T08:00:38;4.55;;;2.08;;
27684;SDS011;46113;50.130;8.526;2023-04-23T08:03:05;2.40;;;2.05;;
27684;SDS011;46113;50.130;8.526;2023-04-23T08:05:32;3.33;;;2.20;;
27684;SDS011;46113;50.130;8.526;2023-04-23T08:07:59;3.53;;;2.05;;
27684;SDS011;46113;50.130;8.526;2023-04-23T08:10:25;5.47;;;2.53;;
27684;SDS011;46113;50.130;8.526;2023-04-23T08:12:52;2.60;;;2.40;;
27684;SDS011;46113;50.130;8.526;2023-04-23T08:15:19;2.30;;;1.95;;
27684;SDS011;46113;50.130;8.526;2023-04-23T08:17:46;3.50;;;2.15;;
27684;SDS011;46113;50.130;8.526;2023-04-23T08:20:13;4.15;;;2.13;;
27684;SDS011;46113;50.130;8.526;2023-04-23T08:22:40;2.97;;;2.08;;
27684;SDS011;46113;50.130;8.526;2023-04-23T08:25:07;5.65;;;2.35;;
27684;SDS011;46113;50.130;8.526;2023-04-23T08:27:34;2.42;;;1.85;;
27684;SDS011;46113;50.130;8.526;2023-04-23T08:30:02;5.03;;;1.88;;
27684;SDS011;46113;50.130;8.526;2023-04-23T08:32:29;2.50;;;2.08;;
27684;SDS011;46113;50.130;8.526;2023-04-23T08:34:56;2.05;;;1.90;;
27684;SDS011;46113;50.130;8.526;2023-04-23T08:37:24;3.75;;;1.40;;
27684;SDS011;46113;50.130;8.526;2023-04-23T08:39:57;1.53;;;1.43;;
27684;SDS011;46113;50.130;8.526;2023-04-23T08:45:03;1.60;;;1.48;;
27684;SDS011;46113;50.130;8.526;2023-04-23T08:47:31;1.95;;;1.70;;
27684;SDS011;46113;50.130;8.526;2023-04-23T08:49:59;2.80;;;1.30;;
27684;SDS011;46113;50.130;8.526;2023-04-23T08:52:28;3.65;;;1.40;;
27684;SDS011;46113;50.130;8.526;2023-04-23T08:58:02;3.92;;;1.27;;
27684;SDS011;46113;50.130;8.526;2023-04-23T09:00:31;2.30;;;1.50;;
27684;SDS011;46113;50.130;8.526;2023-04-23T09:03:01;2.25;;;1.40;;
27684;SDS011;46113;50.130;8.526;2023-04-23T09:08:35;1.75;;;1.65;;
27684;SDS011;46113;50.130;8.526;2023-04-23T09:11:03;1.50;;;1.40;;
27684;SDS011;46113;50.130;8.526;2023-04-23T09:13:30;2.25;;;1.40;;
27684;SDS011;46113;50.130;8.526;2023-04-23T09:15:59;1.83;;;1.17;;
27684;SDS011;46113;50.130;8.526;2023-04-23T09:18:26;3.25;;;2.40;;
27684;SDS011;46113;50.130;8.526;2023-04-23T09:20:53;1.65;;;1.50;;
27684;SDS011;46113;50.130;8.526;2023-04-23T09:23:20;2.00;;;1.33;;
27684;SDS011;46113;50.130;8.526;2023-04-23T09:25:48;1.40;;;1.30;;
27684;SDS011;46113;50.130;8.526;2023-04-23T09:28:15;2.85;;;1.55;;
27684;SDS011;46113;50.130;8.526;2023-04-23T09:30:43;1.67;;;1.10;;
27684;SDS011;46113;50.130;8.526;2023-04-23T09:33:11;2.67;;;1.17;;
27684;SDS011;46113;50.130;8.526;2023-04-23T09:35:38;2.13;;;1.27;;
27684;SDS011;46113;50.130;8.526;2023-04-23T09:38:07;2.20;;;1.48;;
27684;SDS011;46113;50.130;8.526;2023-04-23T09:40:36;4.28;;;1.67;;
27684;SDS011;46113;50.130;8.526;2023-04-23T09:43:04;2.22;;;1.63;;
27684;SDS011;46113;50.130;8.526;2023-04-23T09:45:32;3.13;;;1.25;;
27684;SDS011;46113;50.130;8.526;2023-04-23T09:48:01;2.60;;;1.50;;
27684;SDS011;46113;50.130;8.526;2023-04-23T09:50:32;1.58;;;1.48;;
27684;SDS011;46113;50.130;8.526;2023-04-23T09:53:01;3.70;;;1.45;;
27684;SDS011;46113;50.130;8.526;2023-04-23T09:55:31;1.50;;;1.40;;
27684;SDS011;46113;50.130;8.526;2023-04-23T09:58:12;1.30;;;1.02;;
27684;SDS011;46113;50.130;8.526;2023-04-23T10:00:43;1.55;;;1.38;;
27684;SDS011;46113;50.130;8.526;2023-04-23T10:03:10;2.05;;;1.42;;
27684;SDS011;46113;50.130;8.526;2023-04-23T10:05:43;2.17;;;1.95;;
27684;SDS011;46113;50.130;8.526;2023-04-23T10:08:28;2.97;;;1.42;;
27684;SDS011;46113;50.130;8.526;2023-04-23T10:11:09;3.63;;;1.20;;
27684;SDS011;46113;50.130;8.526;2023-04-23T10:14:05;2.13;;;1.40;;
27684;SDS011;46113;50.130;8.526;2023-04-23T10:16:40;9.02;;;1.60;;
27684;SDS011;46113;50.130;8.526;2023-04-23T10:19:15;2.03;;;1.23;;
27684;SDS011;46113;50.130;8.526;2023-04-23T10:21:51;1.90;;;1.25;;
27684;SDS011;46113;50.130;8.526;2023-04-23T10:24:52;1.48;;;1.38;;
27684;SDS011;46113;50.130;8.526;2023-04-23T10:28:14;2.15;;;1.63;;
27684;SDS011;46113;50.130;8.526;2023-04-23T10:31:05;1.45;;;1.05;;
27684;SDS011;46113;50.130;8.526;2023-04-23T10:33:54;1.88;;;1.20;;
27684;SDS011;46113;50.130;8.526;2023-04-23T10:36:39;1.48;;;1.30;;
27684;SDS011;46113;50.130;8.526;2023-04-23T10:39:10;3.08;;;1.02;;
27684;SDS011;46113;50.130;8.526;2023-04-23T10:41:41;3.72;;;1.42;;
27684;SDS011;46113;50.130;8.526;2023-04-23T10:44:16;3.03;;;1.25;;
27684;SDS011;46113;50.130;8.526;2023-04-23T10:47:17;7.72;;;1.60;;
27684;SDS011;46113;50.130;8.526;2023-04-23T10:49:50;1.88;;;1.00;;
27684;SDS011;46113;50.130;8.526;2023-04-23T10:52:18;4.88;;;1.50;;
27684;SDS011;46113;50.130;8.526;2023-04-23T10:55:00;1.80;;;1.30;;
27684;SDS011;46113;50.130;8.526;2023-04-23T10:57:31;1.90;;;1.05;;
27684;SDS011;46113;50.130;8.526;2023-04-23T11:00:43;1.58;;;1.20;;
27684;SDS011;46113;50.130;8.526;2023-04-23T11:06:14;1.30;;;1.10;;
27684;SDS011;46113;50.130;8.526;2023-04-23T11:08:49;1.27;;;1.17;;
27684;SDS011;46113;50.130;8.526;2023-04-23T11:11:39;1.25;;;0.98;;
27684;SDS011;46113;50.130;8.526;2023-04-23T11:14:10;2.42;;;0.98;;
27684;SDS011;46113;50.130;8.526;2023-04-23T11:16:41;1.00;;;0.90;;
27684;SDS011;46113;50.130;8.526;2023-04-23T11:19:09;0.60;;;0.60;;
27684;SDS011;46113;50.130;8.526;2023-04-23T11:24:28;1.55;;;0.80;;
27684;SDS011;46113;50.130;8.526;2023-04-23T11:26:56;1.15;;;1.00;;
27684;SDS011;46113;50.130;8.526;2023-04-23T11:29:24;2.15;;;0.90;;
27684;SDS011;46113;50.130;8.526;2023-04-23T11:31:53;2.53;;;1.00;;
27684;SDS011;46113;50.130;8.526;2023-04-23T11:34:23;2.60;;;1.10;;
27684;SDS011;46113;50.130;8.526;2023-04-23T11:36:52;1.67;;;0.80;;
27684;SDS011;46113;50.130;8.526;2023-04-23T11:39:21;0.98;;;0.80;;
27684;SDS011;46113;50.130;8.526;2023-04-23T11:41:49;0.60;;;0.60;;
27684;SDS011;46113;50.130;8.526;2023-04-23T11:44:19;1.02;;;0.40;;
27684;SDS011;46113;50.130;8.526;2023-04-23T11:46:49;1.17;;;0.90;;
27684;SDS011;46113;50.130;8.526;2023-04-23T11:49:16;1.15;;;0.60;;
27684;SDS011;46113;50.130;8.526;2023-04-23T11:51:44;2.08;;;0.60;;
27684;SDS011;46113;50.130;8.526;2023-04-23T11:54:12;1.55;;;0.77;;
27684;SDS011;46113;50.130;8.526;2023-04-23T11:56:40;4.30;;;0.77;;
27684;SDS011;46113;50.130;8.526;2023-04-23T11:59:07;0.50;;;0.50;;
27684;SDS011;46113;50.130;8.526;2023-04-23T12:01:38;0.95;;;0.52;;
27684;SDS011;46113;50.130;8.526;2023-04-23T12:04:17;1.10;;;0.50;;
27684;SDS011;46113;50.130;8.526;2023-04-23T12:06:46;1.35;;;0.75;;
27684;SDS011;46113;50.130;8.526;2023-04-23T12:09:26;3.30;;;0.50;;
27684;SDS011;46113;50.130;8.526;2023-04-23T12:11:55;0.85;;;0.40;;
27684;SDS011;46113;50.130;8.526;2023-04-23T12:14:25;0.98;;;0.57;;
27684;SDS011;46113;50.130;8.526;2023-04-23T12:16:56;0.75;;;0.47;;
27684;SDS011;46113;50.130;8.526;2023-04-23T12:19:26;1.42;;;0.70;;
27684;SDS011;46113;50.130;8.526;2023-04-23T12:21:58;0.60;;;0.52;;
27684;SDS011;46113;50.130;8.526;2023-04-23T12:24:27;2.63;;;0.70;;
27684;SDS011;46113;50.130;8.526;2023-04-23T12:26:56;0.45;;;0.30;;
27684;SDS011;46113;50.130;8.526;2023-04-23T12:29:27;0.95;;;0.68;;
27684;SDS011;46113;50.130;8.526;2023-04-23T12:31:57;2.60;;;1.00;;
27684;SDS011;46113;50.130;8.526;2023-04-23T12:34:26;1.35;;;0.50;;
27684;SDS011;46113;50.130;8.526;2023-04-23T12:36:54;2.05;;;0.70;;
27684;SDS011;46113;50.130;8.526;2023-04-23T12:44:25;1.83;;;0.50;;
27684;SDS011;46113;50.130;8.526;2023-04-23T12:46:53;1.13;;;0.63;;
27684;SDS011;46113;50.130;8.526;2023-04-23T12:49:23;0.85;;;0.65;;
27684;SDS011;46113;50.130;8.526;2023-04-23T12:51:53;0.85;;;0.50;;
27684;SDS011;46113;50.130;8.526;2023-04-23T12:54:27;1.08;;;0.50;;
27684;SDS011;46113;50.130;8.526;2023-04-23T12:56:57;0.60;;;0.45;;
27684;SDS011;46113;50.130;8.526;2023-04-23T12:59:25;1.23;;;0.40;;
27684;SDS011;46113;50.130;8.526;2023-04-23T13:01:51;1.33;;;0.50;;
27684;SDS011;46113;50.130;8.526;2023-04-23T13:04:19;1.25;;;0.50;;
27684;SDS011;46113;50.130;8.526;2023-04-23T13:06:46;0.35;;;0.22;;
27684;SDS011;46113;50.130;8.526;2023-04-23T13:09:13;1.23;;;0.40;;
27684;SDS011;46113;50.130;8.526;2023-04-23T13:11:41;1.70;;;0.40;;
27684;SDS011;46113;50.130;8.526;2023-04-23T13:14:08;1.85;;;0.40;;
27684;SDS011;46113;50.130;8.526;2023-04-23T13:16:35;0.52;;;0.40;;
27684;SDS011;46113;50.130;8.526;2023-04-23T13:19:03;0.47;;;0.30;;
27684;SDS011;46113;50.130;8.526;2023-04-23T13:21:30;1.23;;;0.60;;
27684;SDS011;46113;50.130;8.526;2023-04-23T13:23:57;0.40;;;0.30;;
27684;SDS011;46113;50.130;8.526;2023-04-23T13:26:24;0.80;;;0.57;;
27684;SDS011;46113;50.130;8.526;2023-04-23T13:28:51;3.35;;;0.47;;
27684;SDS011;46113;50.130;8.526;2023-04-23T13:31:17;0.40;;;0.32;;
27684;SDS011;46113;50.130;8.526;2023-04-23T13:33:44;0.93;;;0.40;;
27684;SDS011;46113;50.130;8.526;2023-04-23T13:36:11;0.30;;;0.30;;
27684;SDS011;46113;50.130;8.526;2023-04-23T13:38:38;0.30;;;0.30;;
27684;SDS011;46113;50.130;8.526;2023-04-23T13:41:05;0.43;;;0.25;;
27684;SDS011;46113;50.130;8.526;2023-04-23T13:43:32;1.25;;;0.73;;
27684;SDS011;46113;50.130;8.526;2023-04-23T13:45:59;0.45;;;0.45;;
27684;SDS011;46113;50.130;8.526;2023-04-23T13:48:26;1.95;;;0.70;;
27684;SDS011;46113;50.130;8.526;2023-04-23T13:51:02;0.32;;;0.30;;
27684;SDS011;46113;50.130;8.526;2023-04-23T13:53:36;4.85;;;0.70;;
27684;SDS011;46113;50.130;8.526;2023-04-23T13:56:02;0.30;;;0.30;;
27684;SDS011;46113;50.130;8.526;2023-04-23T13:58:29;0.40;;;0.40;;
27684;SDS011;46113;50.130;8.526;2023-04-23T14:00:56;0.52;;;0.43;;
27684;SDS011;46113;50.130;8.526;2023-04-23T14:03:23;1.73;;;0.50;;
27684;SDS011;46113;50.130;8.526;2023-04-23T14:05:50;0.40;;;0.40;;
27684;SDS011;46113;50.130;8.526;2023-04-23T14:08:16;1.17;;;0.68;;
27684;SDS011;46113;50.130;8.526;2023-04-23T14:10:43;0.47;;;0.40;;
27684;SDS011;46113;50.130;8.526;2023-04-23T14:13:10;1.90;;;0.85;;
27684;SDS011;46113;50.130;8.526;2023-04-23T14:15:37;0.68;;;0.47;;
27684;SDS011;46113;50.130;8.526;2023-04-23T14:18:04;0.82;;;0.40;;
27684;SDS011;46113;50.130;8.526;2023-04-23T14:20:31;1.13;;;0.40;;
27684;SDS011;46113;50.130;8.526;2023-04-23T14:25:52;0.30;;;0.30;;
27684;SDS011;46113;50.130;8.526;2023-04-23T14:28:28;0.80;;;0.60;;
27684;SDS011;46113;50.130;8.526;2023-04-23T14:30:58;0.43;;;0.43;;
27684;SDS011;46113;50.130;8.526;2023-04-23T14:33:26;0.63;;;0.43;;
27684;SDS011;46113;50.130;8.526;2023-04-23T14:35:53;3.33;;;0.50;;
27684;SDS011;46113;50.130;8.526;2023-04-23T14:38:20;1.50;;;0.40;;
27684;SDS011;46113;50.130;8.526;2023-04-23T14:40:47;0.50;;;0.40;;
27684;SDS011;46113;50.130;8.526;2023-04-23T14:43:14;0.40;;;0.40;;
27684;SDS011;46113;50.130;8.526;2023-04-23T14:45:42;0.63;;;0.52;;
27684;SDS011;46113;50.130;8.526;2023-04-23T14:48:09;1.17;;;0.82;;
27684;SDS011;46113;50.130;8.526;2023-04-23T14:50:36;0.75;;;0.47;;
27684;SDS011;46113;50.130;8.526;2023-04-23T14:53:03;0.93;;;0.40;;
27684;SDS011;46113;50.130;8.526;2023-04-23T14:55:32;0.50;;;0.50;;
27684;SDS011;46113;50.130;8.526;2023-04-23T14:57:59;0.32;;;0.30;;
27684;SDS011;46113;50.130;8.526;2023-04-23T15:00:26;1.48;;;0.43;;
27684;SDS011;46113;50.130;8.526;2023-04-23T15:02:53;1.83;;;0.30;;
27684;SDS011;46113;50.130;8.526;2023-04-23T15:05:21;1.63;;;0.88;;
27684;SDS011;46113;50.130;8.526;2023-04-23T15:07:47;0.52;;;0.50;;
27684;SDS011;46113;50.130;8.526;2023-04-23T15:10:16;1.15;;;0.82;;
27684;SDS011;46113;50.130;8.526;2023-04-23T15:12:53;1.80;;;0.35;;
27684;SDS011;46113;50.130;8.526;2023-04-23T15:15:34;0.35;;;0.30;;
27684;SDS011;46113;50.130;8.526;2023-04-23T15:18:20;1.25;;;0.55;;
27684;SDS011;46113;50.130;8.526;2023-04-23T15:20:47;3.47;;;0.52;;
27684;SDS011;46113;50.130;8.526;2023-04-23T15:23:14;0.50;;;0.50;;
27684;SDS011;46113;50.130;8.526;2023-04-23T15:25:41;1.40;;;0.32;;